Pagina principale
METAR-TAF:

METAR-TAF

Aeroporti :

Aeroporto di Irkutsk

Irkutsk, Russia

latitudine: 52-16N, longitudine: 104-19E, altezza: 513 m

Osservazione

Il bollettino è stato emesso 27 minuti fa, alle 18:00 UTC
Vento 4 kt da est
Temperature -12°C
Umidità 85%
Pressione 1020 hPa
Visibilità 10 km o più
nessuna nube inferiore a 1500 m e nessun cumulonembo

METAR: UIII 211800Z 09002MPS CAVOK M12/M14 Q1020 R12/820350 NOSIG RMK QFE723/0964

Ora: 02:27 (18:27 UTC)

Previsione

Il bollettino è stato emesso 1 ora e 27 minuti fa, alle 17:00 UTC
Previsione valida dal 21 alle 18 UTC al 22 alle 18 UTC
Vento 6 kt da est
Visibilità 10 km o più
Nuvoloso ad un'altezza di 200 ft
Temporaneamente
dal 21 alle 18 UTC al 22 alle 04 UTC
Visibilità: 0300 m
ad un'altezza di 100 ft
nebbia che ghiaccia
Evoluzione graduale
dal 22 alle 04 UTC al 22 alle 05 UTC

TAF: UIII 211700Z 2118/2218 10003MPS 9999 BKN002 TEMPO 2118/2204 0300 FZFG VV001 BECMG 2204/2205 NSC

Osservazioni e previsioni meteorologiche di più di 4000 aeroporti (messaggi METAR e TAF).

Le stazioni disponibili sono rappresentate dai dischi gialli e rossi sulla carta.

Puntare il mouse per vedere il nome della stazione.

Clicca sopra per visualizzare le osservazioni e previsioni meteorologiche.

Per cambiare la mappa : fare clic sui pulsanti verdi con una croce nera per ingrandire, il pulsante verde con un trattino per diminuire, o sulla freccia verde per le mappe adiacenti.


METAR-TAF: